Time;durP1;ratioP1;P1;durP2;ratioP2;P2;SDS_P1;SDS_P2;PMS_P1;PMS_P2;Temp;Humidity;BMP_temperature;BMP_pressure;BME280_temperature;BME280_humidity;BME280_pressure;Samples;Min_cycle;Max_cycle;Signal;HPM_P1;HPM_P2
2021/12/10 00:00:17;;;;;;;2.22;1.67;;;3.90;99.90;;;;;;4968455;28;20066;-88
2021/12/10 00:02:46;;;;;;;1.42;1.33;;;3.80;99.90;;;;;;4951858;29;20045;-87
2021/12/10 00:05:14;;;;;;;1.50;1.40;;;3.80;99.90;;;;;;4977823;28;20054;-87
2021/12/10 00:07:41;;;;;;;1.10;1.10;;;3.90;99.90;;;;;;4962157;29;20277;-88
2021/12/10 00:10:10;;;;;;;1.35;0.95;;;3.80;99.90;;;;;;4971558;28;20495;-86
2021/12/10 00:12:43;;;;;;;0.80;0.80;;;3.80;99.90;;;;;;4964511;28;20061;-87
2021/12/10 00:15:10;;;;;;;1.67;1.50;;;3.80;99.90;;;;;;4977065;28;20128;-86
2021/12/10 00:17:36;;;;;;;3.05;1.83;;;3.80;99.90;;;;;;4953303;28;20169;-88
2021/12/10 00:20:06;;;;;;;1.45;1.35;;;3.80;99.90;;;;;;4958125;28;20142;-88
2021/12/10 00:22:40;;;;;;;1.25;1.15;;;3.80;99.90;;;;;;4972101;28;20492;-88
2021/12/10 00:25:13;;;;;;;1.02;1.02;;;3.80;99.90;;;;;;4962241;28;20554;-86
2021/12/10 00:27:40;;;;;;;0.83;0.83;;;3.90;99.90;;;;;;4958835;28;20067;-88
2021/12/10 00:30:15;;;;;;;1.02;0.93;;;3.90;99.90;;;;;;4961882;28;20042;-86
2021/12/10 00:32:48;;;;;;;2.25;1.80;;;3.80;99.90;;;;;;4963307;28;20047;-87
2021/12/10 00:35:23;;;;;;;1.23;1.13;;;3.90;99.90;;;;;;4990893;28;20038;-86
2021/12/10 00:37:48;;;;;;;1.27;1.17;;;3.90;99.90;;;;;;4955274;28;20069;-86
2021/12/10 00:40:15;;;;;;;0.70;0.70;;;3.90;99.90;;;;;;4978328;28;20126;-86
2021/12/10 00:42:41;;;;;;;1.33;1.23;;;3.90;99.90;;;;;;4977358;28;20047;-87
2021/12/10 00:45:10;;;;;;;1.05;1.05;;;3.90;99.90;;;;;;4953158;28;20124;-86
2021/12/10 00:47:36;;;;;;;1.10;1.02;;;3.90;99.90;;;;;;4959226;28;20035;-86
2021/12/10 00:50:04;;;;;;;1.13;1.08;;;3.90;99.90;;;;;;4948696;28;20070;-86
2021/12/10 00:52:31;;;;;;;1.20;1.10;;;3.90;99.90;;;;;;4972292;28;20411;-87
2021/12/10 00:54:57;;;;;;;0.82;0.82;;;3.90;99.90;;;;;;4969090;28;20078;-87
2021/12/10 00:57:23;;;;;;;0.90;0.90;;;3.90;99.90;;;;;;4954749;28;20102;-87
2021/12/10 00:59:50;;;;;;;0.80;0.80;;;3.90;99.90;;;;;;4978155;28;20058;-87
2021/12/10 01:02:19;;;;;;;1.45;1.13;;;3.90;99.90;;;;;;4975657;28;20050;-87
2021/12/10 01:04:48;;;;;;;0.90;0.90;;;3.90;99.90;;;;;;4959265;28;20047;-88
2021/12/10 01:07:18;;;;;;;1.55;1.45;;;3.90;99.90;;;;;;4947167;28;20050;-87
2021/12/10 01:09:48;;;;;;;1.35;1.25;;;3.90;99.90;;;;;;4959316;28;20178;-87
2021/12/10 01:12:20;;;;;;;0.90;0.90;;;3.90;99.90;;;;;;4961293;28;20050;-88
2021/12/10 01:15:22;;;;;;;1.70;1.60;;;3.90;99.90;;;;;;4969838;28;20038;-87
2021/12/10 01:23:55;;;;;;;1.20;1.10;;;4.00;99.90;;;;;;4936272;29;20095;-88
2021/12/10 01:29:31;;;;;;;1.17;1.15;;;4.00;99.90;;;;;;4967805;28;20112;-87
2021/12/10 01:31:59;;;;;;;0.80;0.80;;;4.00;99.90;;;;;;4966146;28;20086;-87
2021/12/10 01:34:26;;;;;;;4.40;2.72;;;4.00;99.90;;;;;;4975414;28;20039;-88
2021/12/10 01:36:53;;;;;;;1.33;1.23;;;4.00;99.90;;;;;;4977074;28;20189;-85
2021/12/10 01:39:23;;;;;;;1.77;1.67;;;4.00;99.90;;;;;;4965009;28;20054;-86
2021/12/10 01:41:56;;;;;;;1.20;1.10;;;4.00;99.90;;;;;;4963921;28;20048;-88
2021/12/10 01:44:29;;;;;;;1.23;1.20;;;4.00;99.90;;;;;;4954006;28;20097;-87
2021/12/10 01:47:03;;;;;;;0.80;0.80;;;4.00;99.90;;;;;;4956453;28;20035;-88
2021/12/10 01:49:29;;;;;;;9.63;1.30;;;4.00;99.90;;;;;;4970745;28;20371;-88
2021/12/10 01:51:56;;;;;;;1.00;1.00;;;4.00;99.90;;;;;;4957280;28;20039;-86
2021/12/10 01:54:28;;;;;;;1.00;1.00;;;4.00;99.90;;;;;;4959608;29;20474;-86
2021/12/10 01:56:56;;;;;;;1.38;1.27;;;4.00;99.90;;;;;;4972746;28;20364;-86
2021/12/10 01:59:25;;;;;;;0.80;0.80;;;3.90;99.90;;;;;;4946644;28;20094;-86
2021/12/10 02:01:55;;;;;;;1.02;1.02;;;3.90;99.90;;;;;;4951460;28;20126;-86
2021/12/10 02:04:28;;;;;;;1.25;1.15;;;3.90;99.90;;;;;;4960308;28;20085;-86
2021/12/10 02:06:54;;;;;;;0.70;0.70;;;3.90;99.90;;;;;;4951539;28;20038;-86
2021/12/10 02:09:23;;;;;;;1.08;1.00;;;3.90;99.90;;;;;;4966524;28;20047;-87
2021/12/10 02:11:50;;;;;;;1.58;1.38;;;3.90;99.90;;;;;;4953336;28;20047;-87
2021/12/10 02:14:16;;;;;;;1.85;1.75;;;3.90;99.90;;;;;;4956312;28;20439;-88
2021/12/10 02:16:43;;;;;;;1.00;1.00;;;3.90;99.90;;;;;;4966914;28;20039;-86
2021/12/10 02:19:10;;;;;;;0.85;0.85;;;3.90;99.90;;;;;;4952995;28;20042;-86
2021/12/10 02:21:39;;;;;;;0.98;0.95;;;3.90;99.90;;;;;;4972562;28;20125;-89
2021/12/10 02:24:05;;;;;;;1.45;1.25;;;3.90;99.90;;;;;;4961951;28;20042;-88
2021/12/10 02:26:41;;;;;;;1.23;1.13;;;3.90;99.90;;;;;;4945466;29;20135;-87
2021/12/10 02:29:09;;;;;;;1.20;1.20;;;3.90;99.90;;;;;;4970008;28;20138;-88
2021/12/10 02:31:36;;;;;;;0.80;0.80;;;3.90;99.90;;;;;;4957570;28;20050;-86
2021/12/10 02:34:03;;;;;;;1.25;1.15;;;3.90;99.90;;;;;;4978059;28;20081;-87
2021/12/10 02:36:30;;;;;;;1.50;1.25;;;3.90;99.90;;;;;;4967015;28;20439;-88
2021/12/10 02:38:57;;;;;;;1.20;1.15;;;3.80;99.90;;;;;;4969515;28;20043;-88
2021/12/10 02:41:32;;;;;;;0.70;0.70;;;3.90;99.90;;;;;;4970796;28;20095;-87
2021/12/10 02:44:00;;;;;;;1.00;1.00;;;3.90;99.90;;;;;;4953955;28;20057;-88
2021/12/10 02:46:27;;;;;;;1.63;1.52;;;3.90;99.90;;;;;;4950133;28;20069;-88
2021/12/10 02:48:54;;;;;;;0.90;0.90;;;3.80;99.90;;;;;;4959221;28;20053;-88
2021/12/10 02:51:20;;;;;;;1.40;1.25;;;3.90;99.90;;;;;;4956222;28;20071;-88
2021/12/10 02:53:46;;;;;;;1.63;1.48;;;3.90;99.90;;;;;;4950251;28;20053;-88
2021/12/10 02:56:16;;;;;;;0.70;0.70;;;3.90;99.90;;;;;;4983231;28;20043;-88
2021/12/10 02:58:43;;;;;;;0.90;0.90;;;3.80;99.90;;;;;;4971062;28;20164;-87
2021/12/10 03:01:39;;;;;;;0.80;0.80;;;3.90;99.90;;;;;;4958881;28;20035;-87
2021/12/10 03:04:09;;;;;;;1.33;1.23;;;3.80;99.90;;;;;;4966777;28;20063;-87
2021/12/10 03:06:44;;;;;;;3.63;1.38;;;3.80;99.90;;;;;;4970825;28;20039;-87
2021/12/10 03:09:10;;;;;;;0.80;0.80;;;3.80;99.90;;;;;;4966360;28;20420;-87
2021/12/10 03:11:38;;;;;;;0.90;0.90;;;3.80;99.90;;;;;;4959179;28;20070;-86
2021/12/10 03:14:10;;;;;;;0.70;0.70;;;3.80;99.90;;;;;;4970565;28;20051;-87
2021/12/10 03:16:37;;;;;;;0.70;0.70;;;3.80;99.90;;;;;;4966844;28;20073;-87
2021/12/10 03:19:20;;;;;;;0.85;0.85;;;3.80;99.90;;;;;;4978749;28;20068;-87
2021/12/10 03:21:47;;;;;;;1.30;1.20;;;3.80;99.90;;;;;;4959689;28;20046;-86
2021/12/10 03:24:16;;;;;;;1.88;1.77;;;3.90;99.90;;;;;;4963272;28;20042;-87
2021/12/10 03:26:43;;;;;;;1.42;1.33;;;3.80;99.90;;;;;;4972656;28;20053;-87
2021/12/10 03:29:09;;;;;;;1.83;1.17;;;3.80;99.90;;;;;;4969340;28;20043;-87
2021/12/10 03:31:35;;;;;;;2.00;1.15;;;3.80;99.90;;;;;;4961689;28;20039;-87
2021/12/10 03:34:02;;;;;;;3.63;1.25;;;3.70;99.90;;;;;;4951864;28;20051;-87
2021/12/10 03:36:29;;;;;;;0.93;0.93;;;3.70;99.90;;;;;;4974680;28;20070;-87
2021/12/10 03:38:55;;;;;;;0.82;0.82;;;3.80;99.90;;;;;;4958729;28;20046;-87
2021/12/10 03:41:21;;;;;;;2.80;1.58;;;3.80;99.90;;;;;;4951233;28;20127;-88
2021/12/10 03:43:50;;;;;;;1.00;1.00;;;3.80;99.90;;;;;;4954293;28;20529;-88
2021/12/10 03:46:17;;;;;;;0.88;0.75;;;3.80;99.90;;;;;;4958191;28;20056;-87
2021/12/10 03:48:45;;;;;;;0.70;0.70;;;3.80;99.90;;;;;;4952493;28;20047;-88
2021/12/10 03:51:20;;;;;;;0.98;0.98;;;3.90;99.90;;;;;;4983326;28;20051;-88
2021/12/10 03:53:46;;;;;;;1.40;1.10;;;3.70;99.90;;;;;;4960937;28;20405;-87
2021/12/10 03:56:18;;;;;;;1.75;1.65;;;3.70;99.90;;;;;;4959337;28;20105;-88
2021/12/10 03:58:51;;;;;;;1.08;1.05;;;3.80;99.90;;;;;;4974951;28;20094;-87
2021/12/10 04:01:21;;;;;;;1.52;1.42;;;3.80;99.90;;;;;;4959012;28;20105;-88
2021/12/10 04:03:49;;;;;;;0.70;0.70;;;3.80;99.90;;;;;;4971468;28;20064;-87
2021/12/10 04:06:14;;;;;;;0.80;0.80;;;3.70;99.90;;;;;;4957178;28;20045;-86
2021/12/10 04:08:40;;;;;;;1.80;1.70;;;3.70;99.90;;;;;;4967330;28;20122;-88
2021/12/10 04:11:07;;;;;;;1.25;1.25;;;3.80;99.90;;;;;;4971577;28;20111;-87
2021/12/10 04:13:33;;;;;;;1.05;1.05;;;3.70;99.90;;;;;;4973756;28;20053;-88
2021/12/10 04:15:59;;;;;;;0.73;0.73;;;3.70;99.90;;;;;;4949099;28;20039;-87
2021/12/10 04:18:25;;;;;;;1.27;1.17;;;3.70;99.90;;;;;;4964454;28;20043;-88
2021/12/10 04:20:51;;;;;;;0.95;0.95;;;3.70;99.90;;;;;;4949506;29;20400;-88
2021/12/10 04:23:20;;;;;;;1.15;1.05;;;3.70;99.90;;;;;;4953659;28;20106;-88
2021/12/10 04:25:46;;;;;;;1.65;1.55;;;3.70;99.90;;;;;;4958643;28;20050;-89
2021/12/10 04:28:15;;;;;;;1.20;1.10;;;3.80;99.90;;;;;;4963968;28;20054;-87
2021/12/10 04:30:42;;;;;;;1.45;1.35;;;3.70;99.90;;;;;;4965292;28;20051;-87
2021/12/10 04:33:12;;;;;;;1.23;1.13;;;3.70;99.90;;;;;;4964404;28;20607;-87
2021/12/10 04:35:38;;;;;;;1.38;1.27;;;3.70;99.90;;;;;;4961959;28;20166;-87
2021/12/10 04:38:04;;;;;;;1.05;0.98;;;3.60;99.90;;;;;;4974480;28;20051;-87
2021/12/10 04:40:30;;;;;;;0.85;0.85;;;3.60;99.90;;;;;;4954101;28;20036;-88
2021/12/10 04:42:57;;;;;;;1.02;1.02;;;3.50;99.90;;;;;;4973547;28;20040;-88
2021/12/10 04:45:23;;;;;;;0.80;0.80;;;3.50;99.90;;;;;;4954641;28;20043;-87
2021/12/10 04:47:50;;;;;;;1.27;1.20;;;3.40;99.90;;;;;;4952137;28;20102;-88
2021/12/10 04:50:18;;;;;;;1.60;1.50;;;3.40;99.90;;;;;;4949423;28;20047;-87
2021/12/10 04:52:44;;;;;;;0.93;0.93;;;3.30;99.90;;;;;;4973693;28;20074;-88
2021/12/10 04:55:12;;;;;;;1.75;1.65;;;3.30;99.90;;;;;;4954083;28;20062;-88
2021/12/10 04:57:39;;;;;;;0.80;0.80;;;3.20;99.90;;;;;;4953255;28;20050;-88
2021/12/10 05:00:09;;;;;;;1.73;1.63;;;3.10;99.90;;;;;;4968294;28;20159;-88
2021/12/10 05:02:36;;;;;;;3.90;1.42;;;3.10;99.90;;;;;;4955953;28;20035;-87
2021/12/10 05:05:02;;;;;;;3.33;1.23;;;3.00;99.90;;;;;;4951686;28;20042;-88
2021/12/10 05:07:31;;;;;;;1.00;1.00;;;3.00;99.90;;;;;;4966294;28;20069;-88
2021/12/10 05:09:57;;;;;;;1.10;1.10;;;2.90;99.90;;;;;;4954833;28;20257;-87
2021/12/10 05:12:23;;;;;;;0.82;0.82;;;2.80;99.90;;;;;;4957744;28;20440;-88
2021/12/10 05:14:48;;;;;;;0.80;0.80;;;2.80;99.90;;;;;;4955515;29;20054;-87
2021/12/10 05:17:14;;;;;;;1.30;1.20;;;2.80;99.90;;;;;;4958131;28;20042;-88
2021/12/10 05:19:42;;;;;;;1.05;1.05;;;2.80;99.90;;;;;;4952397;28;20046;-87
2021/12/10 05:22:12;;;;;;;1.42;1.33;;;2.70;99.90;;;;;;4971339;28;20079;-87
2021/12/10 05:24:37;;;;;;;2.78;2.10;;;2.70;99.90;;;;;;4955505;28;20125;-88
2021/12/10 05:27:04;;;;;;;1.25;1.15;;;2.60;99.90;;;;;;4972677;28;20043;-87
2021/12/10 05:29:30;;;;;;;2.70;1.63;;;2.60;99.90;;;;;;4952214;29;20039;-87
2021/12/10 05:31:58;;;;;;;1.05;1.02;;;2.60;99.90;;;;;;4963982;28;20377;-87
2021/12/10 05:34:24;;;;;;;1.23;1.13;;;2.50;99.90;;;;;;4957390;28;20039;-88
2021/12/10 05:36:49;;;;;;;1.98;1.42;;;2.50;99.90;;;;;;4964569;28;20043;-88
2021/12/10 05:39:17;;;;;;;2.28;1.20;;;2.50;99.90;;;;;;4952544;28;20349;-86
2021/12/10 05:41:43;;;;;;;1.30;1.20;;;2.40;99.90;;;;;;4947025;29;20049;-87
2021/12/10 05:44:09;;;;;;;1.20;1.20;;;2.40;99.90;;;;;;4966706;28;20082;-87
2021/12/10 05:46:37;;;;;;;2.13;2.03;;;2.50;99.90;;;;;;4956877;28;20706;-87
2021/12/10 05:49:03;;;;;;;1.00;0.98;;;2.40;99.90;;;;;;4960337;28;20057;-87
2021/12/10 05:51:28;;;;;;;1.25;1.15;;;2.40;99.90;;;;;;4965779;28;20070;-89
2021/12/10 05:53:54;;;;;;;1.88;1.73;;;2.40;99.90;;;;;;4972411;28;20119;-87
2021/12/10 05:56:20;;;;;;;0.95;0.95;;;2.40;99.90;;;;;;4978852;28;20060;-87
2021/12/10 05:58:46;;;;;;;1.27;1.17;;;2.40;99.90;;;;;;4949548;28;20208;-88
2021/12/10 06:01:15;;;;;;;1.65;1.45;;;2.40;99.90;;;;;;4965606;28;20035;-88
2021/12/10 06:03:51;;;;;;;0.90;0.90;;;2.40;99.90;;;;;;4964261;28;20129;-88
2021/12/10 06:06:17;;;;;;;1.27;1.20;;;2.40;99.90;;;;;;4960169;28;20054;-88
2021/12/10 06:08:46;;;;;;;3.58;2.03;;;2.40;99.90;;;;;;4969155;28;20047;-88
2021/12/10 06:11:11;;;;;;;1.48;1.38;;;2.40;99.90;;;;;;4966010;28;20047;-88
2021/12/10 06:13:37;;;;;;;1.65;1.55;;;2.40;99.90;;;;;;4956982;28;20106;-88
2021/12/10 06:16:04;;;;;;;1.45;1.10;;;2.40;99.90;;;;;;4966696;28;20053;-87
2021/12/10 06:18:30;;;;;;;2.83;1.38;;;2.40;99.90;;;;;;4952783;28;20138;-87
2021/12/10 06:20:56;;;;;;;1.05;1.05;;;2.30;99.90;;;;;;4955573;28;20153;-87
2021/12/10 06:23:22;;;;;;;1.65;1.50;;;2.30;99.90;;;;;;4977751;28;20041;-87
2021/12/10 06:25:48;;;;;;;1.35;1.25;;;2.30;99.90;;;;;;4979067;28;20046;-88
2021/12/10 06:28:14;;;;;;;1.10;1.10;;;2.30;99.90;;;;;;4978756;28;20050;-87
2021/12/10 06:30:45;;;;;;;7.43;3.15;;;2.30;99.90;;;;;;4974633;28;20047;-88
2021/12/10 06:33:15;;;;;;;0.85;0.85;;;2.30;99.90;;;;;;4991142;28;20054;-88
2021/12/10 06:35:43;;;;;;;1.25;1.20;;;2.20;99.90;;;;;;4974964;28;20043;-88
2021/12/10 06:38:10;;;;;;;2.70;2.45;;;2.20;99.90;;;;;;4959783;28;20057;-88
2021/12/10 06:40:37;;;;;;;1.45;1.35;;;2.20;99.90;;;;;;4958558;28;20057;-88
2021/12/10 06:43:04;;;;;;;1.05;1.02;;;2.20;99.90;;;;;;4959815;28;20039;-87
2021/12/10 06:45:31;;;;;;;1.27;1.23;;;2.20;99.90;;;;;;4965463;28;20496;-88
2021/12/10 06:48:01;;;;;;;1.80;1.70;;;2.20;99.90;;;;;;4958385;28;20039;-87
2021/12/10 06:50:30;;;;;;;2.55;2.22;;;2.20;99.90;;;;;;4976850;28;20043;-88
2021/12/10 06:52:57;;;;;;;1.42;1.33;;;2.20;99.90;;;;;;4957437;28;20093;-87
2021/12/10 06:55:24;;;;;;;1.55;1.30;;;2.20;99.90;;;;;;4955488;28;20047;-87
2021/12/10 06:57:51;;;;;;;1.55;1.45;;;2.20;99.90;;;;;;4958815;28;20034;-88
2021/12/10 07:00:33;;;;;;;4.40;1.83;;;2.20;99.90;;;;;;4959481;28;20039;-86
2021/12/10 07:03:00;;;;;;;0.98;0.98;;;2.30;99.90;;;;;;4951645;28;20142;-85
2021/12/10 07:05:28;;;;;;;2.00;1.55;;;2.10;99.90;;;;;;4951824;29;20047;-85
2021/12/10 07:07:54;;;;;;;1.27;1.17;;;2.10;99.90;;;;;;4973404;28;20042;-85
2021/12/10 07:10:20;;;;;;;2.03;1.80;;;2.00;99.90;;;;;;4973400;28;20081;-85
2021/12/10 07:12:46;;;;;;;1.30;1.23;;;2.00;99.90;;;;;;4968410;28;20054;-84
2021/12/10 07:15:14;;;;;;;1.00;1.00;;;2.00;99.90;;;;;;4960082;28;20569;-85
2021/12/10 07:17:47;;;;;;;1.30;1.20;;;2.10;99.90;;;;;;4966233;28;20122;-85
2021/12/10 07:20:16;;;;;;;0.90;0.90;;;1.90;99.90;;;;;;4972915;28;20066;-84
2021/12/10 07:22:41;;;;;;;2.47;1.52;;;1.90;99.90;;;;;;4975507;28;20059;-84
2021/12/10 07:25:07;;;;;;;0.90;0.90;;;1.80;99.90;;;;;;4969583;28;20045;-84
2021/12/10 07:27:33;;;;;;;1.60;1.50;;;1.80;99.90;;;;;;4961873;28;20109;-84
2021/12/10 07:29:59;;;;;;;1.25;1.15;;;1.70;99.90;;;;;;4965725;28;20512;-84
2021/12/10 07:32:25;;;;;;;1.98;1.80;;;1.70;99.90;;;;;;4968966;28;20051;-83
2021/12/10 07:34:50;;;;;;;1.42;1.38;;;1.70;99.90;;;;;;4970192;28;20097;-84
2021/12/10 07:37:16;;;;;;;0.95;0.90;;;1.70;99.90;;;;;;4949626;28;20050;-83
2021/12/10 07:39:42;;;;;;;1.38;1.27;;;1.60;99.90;;;;;;4961842;28;20106;-85
2021/12/10 07:42:09;;;;;;;1.13;1.13;;;1.60;99.90;;;;;;4977785;28;20039;-84
2021/12/10 07:44:37;;;;;;;0.90;0.90;;;1.60;99.90;;;;;;4976179;28;20047;-84
2021/12/10 07:47:11;;;;;;;1.42;1.33;;;1.50;99.90;;;;;;4967374;28;20051;-86
2021/12/10 07:49:43;;;;;;;1.08;1.08;;;1.50;99.90;;;;;;4972343;28;20062;-87
2021/12/10 07:52:17;;;;;;;1.05;1.05;;;1.50;99.90;;;;;;4956141;28;20162;-84
2021/12/10 07:54:44;;;;;;;1.83;1.73;;;1.50;99.90;;;;;;4955436;28;20039;-83
2021/12/10 07:57:10;;;;;;;0.80;0.80;;;1.50;99.90;;;;;;4980792;28;20050;-84
2021/12/10 07:59:36;;;;;;;0.82;0.82;;;1.40;99.90;;;;;;4977095;28;20047;-84
2021/12/10 08:02:03;;;;;;;1.52;1.42;;;1.40;99.90;;;;;;4968197;28;20047;-84
2021/12/10 08:04:29;;;;;;;0.85;0.85;;;1.70;99.90;;;;;;4953638;28;20066;-84
2021/12/10 08:06:57;;;;;;;1.02;1.02;;;1.40;99.90;;;;;;4969973;28;20042;-89
2021/12/10 08:09:23;;;;;;;1.38;1.17;;;1.30;99.90;;;;;;4963794;28;20058;-88
2021/12/10 08:11:49;;;;;;;1.10;1.10;;;1.30;99.90;;;;;;4959234;28;20112;-87
2021/12/10 08:14:14;;;;;;;1.88;1.77;;;1.30;99.90;;;;;;4962648;28;20039;-88
2021/12/10 08:16:40;;;;;;;2.00;1.90;;;1.30;99.90;;;;;;4956641;28;20086;-86
2021/12/10 08:19:07;;;;;;;1.45;1.35;;;1.40;99.90;;;;;;4978532;28;20169;-86
2021/12/10 08:21:33;;;;;;;2.80;1.45;;;1.30;99.90;;;;;;4954099;28;20046;-86
2021/12/10 08:24:00;;;;;;;1.42;1.33;;;1.40;99.90;;;;;;4957065;28;20094;-85
2021/12/10 08:26:26;;;;;;;1.08;1.08;;;1.40;99.90;;;;;;4958848;28;20047;-86
2021/12/10 08:28:52;;;;;;;0.80;0.80;;;1.30;99.90;;;;;;4955259;28;20078;-84
2021/12/10 08:31:18;;;;;;;1.52;1.42;;;;;;;;;;4970533;28;20039;-85
2021/12/10 08:33:47;;;;;;;1.30;1.20;;;1.30;99.90;;;;;;4978356;28;20102;-85
2021/12/10 08:36:15;;;;;;;1.00;1.00;;;1.50;99.90;;;;;;4961005;28;20069;-83
2021/12/10 08:38:41;;;;;;;3.40;2.05;;;1.40;99.90;;;;;;4973746;28;20062;-83
2021/12/10 08:41:10;;;;;;;1.23;1.13;;;1.40;99.90;;;;;;4967660;28;20051;-84
2021/12/10 08:43:37;;;;;;;1.30;1.20;;;1.60;99.90;;;;;;4969132;28;20077;-83
2021/12/10 08:46:05;;;;;;;0.95;0.93;;;1.50;99.90;;;;;;4969885;28;20047;-83
2021/12/10 08:48:32;;;;;;;1.98;1.55;;;1.50;99.90;;;;;;4973937;28;20055;-82
2021/12/10 08:51:02;;;;;;;1.02;1.02;;;1.50;99.90;;;;;;4974077;28;20042;-84
2021/12/10 08:53:27;;;;;;;2.47;2.05;;;1.60;99.90;;;;;;4967240;28;20115;-84
2021/12/10 08:55:56;;;;;;;1.35;1.13;;;1.60;99.90;;;;;;4971370;28;20452;-84
2021/12/10 08:58:22;;;;;;;1.42;1.33;;;1.50;99.90;;;;;;4976962;28;20039;-84
2021/12/10 09:00:53;;;;;;;0.90;0.90;;;1.60;99.90;;;;;;4972379;28;20117;-84
2021/12/10 09:03:19;;;;;;;0.90;0.90;;;1.60;99.90;;;;;;4967210;28;20070;-84
2021/12/10 09:05:45;;;;;;;0.90;0.90;;;1.60;99.90;;;;;;4951193;28;20057;-84
2021/12/10 09:08:11;;;;;;;0.80;0.80;;;1.60;99.90;;;;;;4957241;28;20037;-85
2021/12/10 09:10:40;;;;;;;1.13;1.00;;;1.70;99.90;;;;;;4972247;28;20480;-83
2021/12/10 09:13:13;;;;;;;1.08;1.08;;;1.70;99.90;;;;;;4975496;28;20047;-85
2021/12/10 09:15:43;;;;;;;1.70;1.42;;;1.80;99.90;;;;;;4976277;28;20043;-86
2021/12/10 09:18:09;;;;;;;0.80;0.80;;;1.80;99.90;;;;;;4976593;28;20090;-87
2021/12/10 09:20:40;;;;;;;1.00;1.00;;;1.90;99.90;;;;;;4970779;28;20043;-86
2021/12/10 09:23:09;;;;;;;1.17;1.10;;;1.90;99.90;;;;;;4969702;28;20102;-86
2021/12/10 09:25:36;;;;;;;1.30;1.20;;;1.90;99.90;;;;;;4969646;28;20035;-86
2021/12/10 09:28:02;;;;;;;0.98;0.98;;;2.00;99.90;;;;;;4980692;28;20045;-86
2021/12/10 09:30:30;;;;;;;1.10;1.10;;;2.00;99.90;;;;;;4963900;28;20061;-90
2021/12/10 09:32:57;;;;;;;6.32;2.05;;;2.10;99.90;;;;;;4974253;28;20122;-89
2021/12/10 09:35:26;;;;;;;1.17;1.10;;;2.10;99.90;;;;;;4955489;28;20050;-89
2021/12/10 09:37:51;;;;;;;0.88;0.88;;;2.10;99.90;;;;;;4958510;28;20046;-90
2021/12/10 09:40:22;;;;;;;1.52;1.42;;;2.20;99.90;;;;;;4956066;28;20069;-88
2021/12/10 09:42:48;;;;;;;0.80;0.80;;;2.30;99.90;;;;;;4964226;28;20102;-89
2021/12/10 09:45:18;;;;;;;0.93;0.93;;;2.30;99.90;;;;;;4961536;29;20070;-88
2021/12/10 09:47:44;;;;;;;0.90;0.90;;;2.30;99.90;;;;;;4951997;28;20053;-83
2021/12/10 09:50:11;;;;;;;1.85;1.63;;;2.30;99.90;;;;;;4967196;28;20439;-84
2021/12/10 09:52:38;;;;;;;1.40;1.30;;;2.40;99.90;;;;;;4966953;28;20106;-88
2021/12/10 09:55:13;;;;;;;0.90;0.90;;;2.40;99.90;;;;;;4961308;28;20475;-89
2021/12/10 09:57:40;;;;;;;1.17;1.13;;;2.50;99.90;;;;;;4961584;28;20079;-89
2021/12/10 10:00:24;;;;;;;3.55;3.25;;;2.50;99.90;;;;;;4961692;28;20038;-88
2021/12/10 10:02:50;;;;;;;1.05;1.05;;;2.60;99.90;;;;;;4959017;28;20050;-89
2021/12/10 10:05:18;;;;;;;1.00;1.00;;;2.70;99.90;;;;;;4956619;28;20047;-85
2021/12/10 10:07:50;;;;;;;0.80;0.80;;;2.60;99.90;;;;;;4952620;28;20043;-84
2021/12/10 10:10:19;;;;;;;0.90;0.90;;;2.70;99.90;;;;;;4967280;28;20058;-84
2021/12/10 10:12:49;;;;;;;1.80;1.25;;;2.70;99.90;;;;;;4950981;28;20035;-84
2021/12/10 10:15:19;;;;;;;0.80;0.80;;;2.80;99.90;;;;;;4973434;28;20046;-84
2021/12/10 10:17:45;;;;;;;0.80;0.80;;;2.80;99.90;;;;;;4971530;28;20035;-88
2021/12/10 10:20:15;;;;;;;0.90;0.90;;;2.90;99.90;;;;;;4953144;28;20063;-88
2021/12/10 10:22:44;;;;;;;0.80;0.80;;;3.00;99.90;;;;;;4955260;28;20039;-87
2021/12/10 10:25:11;;;;;;;0.88;0.88;;;3.10;99.90;;;;;;4959824;28;20057;-84
2021/12/10 10:27:39;;;;;;;1.42;1.33;;;3.00;99.90;;;;;;4973135;28;20042;-85
2021/12/10 10:30:37;;;;;;;6.53;1.48;;;3.10;99.90;;;;;;4967582;28;20046;-83
2021/12/10 10:33:06;;;;;;;1.10;1.10;;;3.20;99.90;;;;;;4965982;28;20073;-85
2021/12/10 10:35:44;;;;;;;1.02;0.93;;;3.20;99.90;;;;;;4975384;28;20098;-87
2021/12/10 10:38:11;;;;;;;1.25;1.20;;;3.30;99.90;;;;;;4953345;28;20534;-88
2021/12/10 10:40:40;;;;;;;1.10;1.10;;;3.30;99.90;;;;;;4954102;28;20471;-87
2021/12/10 10:43:06;;;;;;;32.67;2.45;;;3.30;99.90;;;;;;4954568;28;20054;-83
2021/12/10 10:45:36;;;;;;;0.90;0.90;;;3.40;99.90;;;;;;4950423;28;20035;-82
2021/12/10 10:48:04;;;;;;;0.80;0.80;;;3.40;99.90;;;;;;4969060;28;20039;-83
2021/12/10 10:50:37;;;;;;;0.80;0.80;;;3.50;99.90;;;;;;4972441;28;20058;-83
2021/12/10 10:53:27;;;;;;;1.48;1.23;;;3.50;99.90;;;;;;4976808;28;20106;-85
2021/12/10 10:56:06;;;;;;;0.70;0.70;;;3.60;99.90;;;;;;4965723;28;20083;-85
2021/12/10 10:58:55;;;;;;;2.47;1.67;;;3.60;99.90;;;;;;4979750;28;20038;-85
2021/12/10 11:01:27;;;;;;;1.23;1.15;;;3.70;99.90;;;;;;4964852;28;20063;-85
2021/12/10 11:04:03;;;;;;;0.80;0.80;;;3.70;99.90;;;;;;4968312;28;20133;-88
2021/12/10 11:06:36;;;;;;;0.90;0.90;;;3.90;99.90;;;;;;4961872;28;20085;-84
2021/12/10 11:09:14;;;;;;;0.80;0.80;;;3.70;99.90;;;;;;4957851;28;20063;-84
2021/12/10 11:11:48;;;;;;;1.27;1.27;;;3.80;99.90;;;;;;4949790;28;20128;-85
2021/12/10 11:14:23;;;;;;;0.75;0.75;;;3.80;99.90;;;;;;4956416;28;20050;-85
2021/12/10 11:16:52;;;;;;;9.98;5.47;;;3.90;99.90;;;;;;4956208;28;20073;-86
2021/12/10 11:19:27;;;;;;;0.70;0.70;;;3.90;99.90;;;;;;4962347;28;20146;-86
2021/12/10 11:22:09;;;;;;;1.05;1.00;;;3.90;99.90;;;;;;4959472;28;20042;-85
2021/12/10 11:24:43;;;;;;;0.80;0.80;;;3.90;99.90;;;;;;4975862;28;20053;-86
2021/12/10 11:27:19;;;;;;;0.80;0.80;;;3.90;99.90;;;;;;4962053;28;20518;-86
2021/12/10 11:29:51;;;;;;;1.00;0.90;;;3.90;99.90;;;;;;4973499;28;20184;-85
2021/12/10 11:32:30;;;;;;;0.70;0.70;;;3.90;99.90;;;;;;4952234;29;20047;-87
2021/12/10 11:35:27;;;;;;;1.55;1.35;;;3.90;99.90;;;;;;4976480;28;20035;-86
2021/12/10 11:37:55;;;;;;;0.90;0.90;;;3.90;99.90;;;;;;4958490;28;20039;-86
2021/12/10 11:40:35;;;;;;;0.90;0.90;;;3.90;99.90;;;;;;4976743;28;20113;-86
2021/12/10 11:43:18;;;;;;;1.33;1.23;;;4.00;99.90;;;;;;4959332;28;20098;-86
2021/12/10 11:46:05;;;;;;;0.70;0.70;;;4.00;99.90;;;;;;4979175;28;20162;-85
2021/12/10 11:48:40;;;;;;;1.90;1.80;;;4.00;99.90;;;;;;4961313;28;20070;-85
2021/12/10 11:51:18;;;;;;;0.88;0.88;;;4.00;99.90;;;;;;4955750;28;20054;-84
2021/12/10 11:53:51;;;;;;;1.60;1.00;;;4.00;99.90;;;;;;4956797;28;20097;-85
2021/12/10 11:56:31;;;;;;;0.80;0.80;;;3.90;99.90;;;;;;4957039;28;20153;-85
2021/12/10 11:59:05;;;;;;;0.70;0.70;;;3.90;99.90;;;;;;4965128;28;20047;-85
2021/12/10 12:01:33;;;;;;;0.80;0.80;;;3.90;99.90;;;;;;4972269;28;20111;-85
2021/12/10 12:04:15;;;;;;;0.90;0.90;;;3.90;99.90;;;;;;4967684;28;20054;-86
2021/12/10 12:06:41;;;;;;;0.70;0.70;;;4.00;99.90;;;;;;4955833;28;20058;-85
2021/12/10 12:09:06;;;;;;;0.80;0.80;;;4.00;99.90;;;;;;4966626;28;20102;-84
2021/12/10 12:11:32;;;;;;;14.45;3.50;;;4.00;99.90;;;;;;4950909;28;20102;-85
2021/12/10 12:14:01;;;;;;;0.98;0.98;;;4.00;99.90;;;;;;4957498;28;20139;-85
2021/12/10 12:16:28;;;;;;;0.90;0.90;;;4.00;99.90;;;;;;4992253;28;20059;-85
2021/12/10 12:18:59;;;;;;;0.88;0.88;;;4.00;99.90;;;;;;4961730;28;20050;-85
2021/12/10 12:27:09;;;;;;;0.90;0.90;;;4.10;99.90;;;;;;4971858;28;20039;-85
2021/12/10 12:29:47;;;;;;;0.77;0.77;;;4.10;99.90;;;;;;4968829;28;20082;-85
2021/12/10 12:32:20;;;;;;;0.70;0.70;;;4.10;99.90;;;;;;4972528;28;20389;-85
2021/12/10 12:34:46;;;;;;;1.27;1.23;;;4.10;99.90;;;;;;4967759;28;20078;-88
2021/12/10 12:37:14;;;;;;;0.80;0.80;;;4.20;99.90;;;;;;4960409;28;20106;-89
2021/12/10 12:39:52;;;;;;;0.75;0.75;;;4.00;99.90;;;;;;4952809;28;20043;-89
2021/12/10 12:42:23;;;;;;;1.13;1.08;;;4.10;99.90;;;;;;4959310;28;20046;-90
2021/12/10 12:45:04;;;;;;;0.73;0.73;;;4.00;99.90;;;;;;4957747;28;20153;-89
2021/12/10 12:47:33;;;;;;;0.70;0.70;;;4.10;99.90;;;;;;4969456;28;20058;-85
2021/12/10 12:50:12;;;;;;;0.80;0.80;;;4.00;99.90;;;;;;4976008;28;20062;-84
2021/12/10 12:52:45;;;;;;;2.05;1.00;;;4.10;99.90;;;;;;4960379;28;20050;-83
2021/12/10 12:55:40;;;;;;;0.70;0.70;;;4.00;99.90;;;;;;4973094;28;20046;-84
2021/12/10 12:58:16;;;;;;;;;;;4.00;99.90;;;;;;4976638;28;20166;-82
2021/12/10 13:01:09;;;;;;;0.80;0.80;;;4.00;99.90;;;;;;4946689;28;20406;-85
2021/12/10 13:03:52;;;;;;;1.10;1.10;;;4.00;99.90;;;;;;4960391;28;20050;-85
2021/12/10 13:06:46;;;;;;;0.70;0.70;;;4.00;99.90;;;;;;4952366;28;20046;-85
2021/12/10 13:12:45;;;;;;;0.80;0.80;;;4.00;99.90;;;;;;4941715;28;20132;-86
2021/12/10 13:15:19;;;;;;;0.90;0.90;;;3.90;99.90;;;;;;4947987;28;20043;-86
2021/12/10 13:17:49;;;;;;;0.80;0.80;;;3.90;99.90;;;;;;4957250;28;20038;-87
2021/12/10 13:20:21;;;;;;;1.33;1.23;;;3.90;99.90;;;;;;4962164;28;20057;-88
2021/12/10 13:22:54;;;;;;;1.00;0.98;;;3.90;99.90;;;;;;4950447;29;20042;-88
2021/12/10 13:25:23;;;;;;;0.93;0.93;;;3.90;99.90;;;;;;4961218;28;20127;-88
2021/12/10 13:27:49;;;;;;;0.60;0.60;;;3.80;99.90;;;;;;4954379;28;20131;-88